Time;durP1;ratioP1;P1;durP2;ratioP2;P2;SDS_P1;SDS_P2;PMS_P1;PMS_P2;Temp;Humidity;BMP_temperature;BMP_pressure;BME280_temperature;BME280_humidity;BME280_pressure;Samples;Min_cycle;Max_cycle;Signal;HPM_P1;HPM_P2
2022/02/04 00:20:53;;;;;;;7.40;3.78;;;;;;;19.77;41.63;100987.56;5019470;28;20041;-64
2022/02/04 00:23:30;;;;;;;6.82;3.90;;;;;;;19.73;41.65;100981.78;5022584;28;20059;-64
2022/02/04 00:30:59;;;;;;;6.55;3.72;;;;;;;19.70;41.72;100978.69;5020500;28;20498;-64
2022/02/04 00:33:27;;;;;;;6.55;3.72;;;;;;;19.70;41.60;100987.44;5021791;28;20461;-63
2022/02/04 00:35:59;;;;;;;7.47;3.95;;;;;;;19.67;41.69;100974.56;5016277;28;20041;-64
2022/02/04 00:38:33;;;;;;;6.40;3.50;;;;;;;19.60;41.75;100978.91;5017226;28;20045;-64
2022/02/04 00:41:07;;;;;;;7.25;3.88;;;;;;;19.63;41.74;100977.75;5027452;28;20048;-64
2022/02/04 00:43:33;;;;;;;8.25;3.90;;;;;;;19.55;41.69;100976.78;5020006;28;20033;-63
2022/02/04 00:46:09;;;;;;;6.72;4.00;;;;;;;19.52;41.87;100971.81;5022625;28;20041;-64
2022/02/04 00:49:15;;;;;;;6.90;3.92;;;;;;;19.48;41.86;100969.72;5017136;28;20042;-64
2022/02/04 00:54:28;;;;;;;10.40;4.22;;;;;;;19.48;41.83;100967.88;5035506;28;20746;-64
2022/02/04 01:26:50;;;;;;;5.78;3.90;;;;;;;19.31;41.92;100959.22;5018462;28;20642;-64
2022/02/04 01:29:16;;;;;;;5.40;3.80;;;;;;;19.32;41.97;100967.97;5021986;28;20082;-64
2022/02/04 01:31:42;;;;;;;6.95;3.90;;;;;;;19.31;42.05;100955.75;5011657;28;20041;-64
2022/02/04 01:34:08;;;;;;;7.10;4.20;;;;;;;19.25;42.08;100949.38;5024191;28;20565;-64
2022/02/04 01:36:33;;;;;;;5.72;3.65;;;;;;;19.26;41.93;100955.47;5012217;28;20049;-64
2022/02/04 01:38:59;;;;;;;5.45;3.63;;;;;;;19.23;42.05;100947.91;5020497;28;20041;-64
2022/02/04 01:41:24;;;;;;;5.80;3.90;;;;;;;19.23;42.12;100948.72;5015444;28;20037;-64
2022/02/04 01:43:50;;;;;;;6.00;3.53;;;;;;;19.19;41.99;100936.84;5016345;28;20553;-64
2022/02/04 01:46:16;;;;;;;7.32;4.47;;;;;;;19.26;41.89;100942.28;5015369;28;20128;-63
2022/02/04 01:48:43;;;;;;;6.68;3.70;;;;;;;19.19;42.00;100938.66;5019329;28;20041;-63
2022/02/04 01:51:11;;;;;;;6.68;3.95;;;;;;;19.17;42.15;100936.19;5018855;28;20498;-64
2022/02/04 01:53:37;;;;;;;5.95;3.75;;;;;;;19.16;42.01;100931.91;5013929;28;20045;-64
2022/02/04 01:56:08;;;;;;;5.20;3.60;;;;;;;19.16;42.18;100931.09;5019320;28;20107;-64
2022/02/04 01:58:35;;;;;;;7.78;3.80;;;;;;;19.15;42.15;100930.25;5016494;28;20041;-64
2022/02/04 02:01:00;;;;;;;7.38;4.30;;;;;;;19.16;42.00;100928.44;5012127;28;20041;-64
2022/02/04 02:03:26;;;;;;;5.40;3.65;;;;;;;19.14;42.21;100925.97;5015026;28;20044;-64
2022/02/04 02:05:56;;;;;;;7.90;4.13;;;;;;;19.13;42.27;100915.59;5018606;28;20042;-64
2022/02/04 02:08:21;;;;;;;5.68;3.83;;;;;;;19.14;42.03;100911.97;5011919;28;20133;-64
2022/02/04 02:10:48;;;;;;;8.55;4.00;;;;;;;19.10;42.30;100911.50;5017520;28;20041;-64
2022/02/04 02:17:01;;;;;;;5.85;3.90;;;;;;;19.03;42.10;100892.06;5017301;28;20041;-64
2022/02/04 02:49:11;;;;;;;7.85;3.75;;;;;;;18.96;42.15;100873.44;5016518;28;20402;-64
2022/02/04 02:52:09;;;;;;;5.70;3.85;;;;;;;18.99;41.99;100861.72;5011073;28;20052;-64
2022/02/04 02:57:50;;;;;;;7.13;3.85;;;;;;;18.96;42.25;100854.16;5014113;28;20037;-64
2022/02/04 03:01:04;;;;;;;7.47;4.00;;;;;;;18.95;42.05;100844.59;5017272;28;20124;-64
2022/02/04 03:03:05;;;;;;;5.47;3.60;;;;;;;18.93;42.09;100849.22;5012143;28;20064;-64
2022/02/04 03:05:30;;;;;;;4.95;3.70;;;;;;;18.81;42.11;100832.13;5015183;28;20033;-64
2022/02/04 03:07:56;;;;;;;5.30;3.92;;;;;;;18.93;42.11;100846.59;5013155;28;20490;-64
2022/02/04 03:10:21;;;;;;;5.63;3.47;;;;;;;18.85;42.37;100842.19;5012671;28;20037;-64
2022/02/04 03:12:48;;;;;;;6.90;4.15;;;;;;;18.81;42.33;100834.78;5015337;28;20067;-64
2022/02/04 03:15:14;;;;;;;4.75;3.67;;;;;;;18.83;42.15;100838.06;5018962;28;20036;-64
2022/02/04 03:17:41;;;;;;;6.78;3.83;;;;;;;18.82;42.29;100834.59;5011891;28;20445;-64
2022/02/04 03:20:10;;;;;;;6.70;3.40;;;;;;;18.85;42.20;100825.50;5013637;28;20068;-64
2022/02/04 03:22:36;;;;;;;5.70;3.17;;;;;;;18.83;42.04;100825.69;5013786;28;20045;-64
2022/02/04 03:25:06;;;;;;;8.02;4.60;;;;;;;18.83;42.29;100830.13;5012355;28;20045;-64
2022/02/04 03:27:38;;;;;;;5.55;3.70;;;;;;;18.80;42.38;100827.84;5013002;28;20040;-64
2022/02/04 03:30:15;;;;;;;6.85;4.13;;;;;;;18.77;42.37;100825.56;5010213;28;20044;-64
2022/02/04 03:32:49;;;;;;;8.07;3.78;;;;;;;18.79;42.23;100824.41;5011506;28;20033;-64
2022/02/04 03:35:20;;;;;;;5.28;3.42;;;;;;;18.79;42.27;100827.03;5010881;28;20502;-64
2022/02/04 03:37:45;;;;;;;8.05;4.30;;;;;;;18.79;42.17;100818.28;5015323;28;20140;-64
2022/02/04 03:40:11;;;;;;;5.82;3.80;;;;;;;18.77;42.18;100822.94;5011935;28;20037;-64
2022/02/04 03:42:37;;;;;;;5.72;3.63;;;;;;;18.75;42.42;100811.72;5012634;28;20580;-64
2022/02/04 03:45:03;;;;;;;5.72;4.10;;;;;;;18.74;42.31;100810.91;5012361;28;20088;-64
2022/02/04 03:47:28;;;;;;;5.97;3.97;;;;;;;18.73;42.31;100801.34;5017398;28;20029;-64
2022/02/04 03:49:54;;;;;;;6.65;3.70;;;;;;;18.73;42.14;100806.63;5022919;28;20542;-64
2022/02/04 03:52:19;;;;;;;6.22;3.88;;;;;;;18.78;42.02;100808.75;5014085;28;20032;-64
2022/02/04 03:54:45;;;;;;;6.32;4.10;;;;;;;18.78;42.26;100808.75;5010768;28;20471;-64
2022/02/04 03:57:10;;;;;;;4.70;3.50;;;;;;;18.79;42.26;100794.56;5015645;28;20045;-64
2022/02/04 03:59:36;;;;;;;6.85;4.00;;;;;;;18.79;42.26;100799.81;5013086;28;20694;-64
2022/02/04 04:02:01;;;;;;;6.50;3.97;;;;;;;18.79;42.09;100803.28;5025069;28;20045;-64
2022/02/04 04:04:31;;;;;;;6.10;4.13;;;;;;;18.74;42.25;100805.63;5011491;28;20048;-64
2022/02/04 04:06:58;;;;;;;;;;;;;;;18.75;42.17;100803.81;5011914;28;20044;-64
2022/02/04 04:09:24;;;;;;;7.90;4.03;;;;;;;18.68;42.41;100791.31;5018746;28;19987;-64
2022/02/04 04:11:50;;;;;;;7.78;4.20;;;;;;;18.76;42.18;100794.91;5009873;28;20039;-64
2022/02/04 04:14:17;;;;;;;7.10;3.90;;;;;;;18.74;42.22;100789.81;5016133;28;20056;-64
2022/02/04 04:16:43;;;;;;;6.53;4.72;;;;;;;18.74;42.15;100794.25;5014349;28;20046;-64
2022/02/04 04:19:08;;;;;;;7.45;4.22;;;;;;;18.71;42.27;100788.34;5015500;28;20599;-64
2022/02/04 04:21:34;;;;;;;5.18;3.60;;;;;;;18.71;42.27;100793.63;5014813;28;20038;-64
2022/02/04 04:24:00;;;;;;;5.90;3.83;;;;;;;18.69;42.21;100800.06;5014935;28;20045;-64
2022/02/04 04:26:26;;;;;;;6.22;4.00;;;;;;;18.68;42.18;100793.16;5016143;28;20078;-64
2022/02/04 04:28:52;;;;;;;5.93;3.88;;;;;;;18.73;42.26;100785.53;5013839;28;20034;-64
2022/02/04 04:31:19;;;;;;;5.50;3.92;;;;;;;18.73;42.29;100789.97;5013563;28;20076;-64
2022/02/04 04:33:45;;;;;;;6.43;3.97;;;;;;;18.70;42.34;100797.25;5011969;28;20080;-64
2022/02/04 04:36:11;;;;;;;6.63;3.97;;;;;;;18.71;42.28;100785.69;5013918;28;20038;-64
2022/02/04 04:38:45;;;;;;;7.22;3.83;;;;;;;18.67;42.09;100781.78;5012823;28;20440;-64
2022/02/04 04:41:24;;;;;;;5.25;3.83;;;;;;;18.69;42.20;100777.16;5013786;28;20029;-64
2022/02/04 05:30:12;;;;;;;6.07;3.67;;;;;;;18.55;42.31;100730.38;5019801;28;20061;-65
2022/02/04 05:32:38;;;;;;;6.35;4.00;;;;;;;18.56;42.30;100726.72;5014925;28;20566;-65
2022/02/04 05:35:07;;;;;;;6.10;3.85;;;;;;;18.61;42.09;100723.56;5016542;28;20445;-65
2022/02/04 05:37:35;;;;;;;4.82;3.53;;;;;;;18.56;42.55;100725.91;5014622;28;20485;-63
2022/02/04 05:40:06;;;;;;;6.18;3.83;;;;;;;18.54;42.21;100720.81;5020601;28;20034;-65
2022/02/04 05:42:35;;;;;;;5.07;3.35;;;;;;;18.57;42.34;100717.00;5016437;28;20057;-63
2022/02/04 05:45:14;;;;;;;6.53;3.25;;;;;;;18.56;42.34;100703.00;5015894;28;20044;-65
2022/02/04 05:47:39;;;;;;;6.70;3.75;;;;;;;18.57;42.31;100703.81;5019451;28;20514;-65
2022/02/04 05:53:12;;;;;;;5.40;3.38;;;;;;;18.55;42.47;100696.09;5016602;28;20061;-65
2022/02/04 05:58:02;;;;;;;4.97;3.60;;;;;;;18.52;42.49;100691.16;5017183;28;20025;-63
2022/02/04 06:00:43;;;;;;;4.88;3.58;;;;;;;18.64;42.24;100692.41;5019142;28;20116;-65
2022/02/04 06:22:22;;;;;;;5.43;3.05;;;;;;;19.91;40.70;100673.13;5016386;28;20057;-64
2022/02/04 06:24:50;;;;;;;5.05;3.47;;;;;;;19.88;40.69;100670.03;5019061;28;20384;-63
2022/02/04 06:27:16;;;;;;;3.47;2.65;;;;;;;19.78;41.01;100670.31;5013658;28;20396;-63
2022/02/04 06:29:43;;;;;;;5.18;3.60;;;;;;;19.76;41.02;100663.59;5019795;28;20033;-65
2022/02/04 06:32:09;;;;;;;5.97;3.45;;;;;;;19.66;41.21;100668.31;5013102;28;20326;-65
2022/02/04 06:34:35;;;;;;;5.10;2.95;;;;;;;19.62;41.44;100654.66;5014989;28;20613;-64
2022/02/04 06:37:00;;;;;;;5.57;3.10;;;;;;;19.63;41.19;100653.66;5014790;28;20042;-64
2022/02/04 06:39:26;;;;;;;4.93;3.10;;;;;;;19.70;41.18;100662.47;5020358;28;20068;-64
2022/02/04 06:41:51;;;;;;;3.53;2.85;;;;;;;19.65;41.33;100648.19;5016148;28;20625;-64
2022/02/04 06:44:17;;;;;;;5.10;3.20;;;;;;;19.82;41.22;100646.97;5012068;28;20037;-64
2022/02/04 06:46:43;;;;;;;5.50;3.45;;;;;;;19.96;40.88;100654.09;5022993;28;20045;-64
2022/02/04 06:49:08;;;;;;;5.53;3.17;;;;;;;20.12;40.65;100648.59;5017198;28;20046;-64
2022/02/04 06:51:34;;;;;;;4.70;2.95;;;;;;;20.18;40.37;100644.38;5019118;28;20037;-64
2022/02/04 06:53:59;;;;;;;4.85;2.88;;;;;;;20.23;40.54;100656.03;5017066;28;20041;-64
2022/02/04 06:56:25;;;;;;;4.05;2.78;;;;;;;20.15;40.56;100656.16;5013765;28;20033;-64
2022/02/04 06:58:51;;;;;;;5.10;3.03;;;;;;;20.04;40.82;100632.81;5014146;28;20065;-64
2022/02/04 07:01:17;;;;;;;4.88;2.72;;;;;;;20.03;40.84;100651.50;5023080;28;20391;-64
2022/02/04 07:03:43;;;;;;;4.57;2.72;;;;;;;19.96;40.91;100635.59;5016781;28;20045;-64
2022/02/04 07:06:12;;;;;;;5.68;3.03;;;;;;;19.96;40.91;100646.16;5021035;28;20405;-64
2022/02/04 07:16:30;;;;;;;3.60;2.60;;;;;;;20.11;40.62;100636.38;5014925;28;20049;-64
2022/02/04 07:21:39;;;;;;;5.60;2.95;;;;;;;20.04;40.80;100637.28;5011692;28;20410;-64
2022/02/04 07:24:05;;;;;;;3.63;2.78;;;;;;;20.15;40.67;100628.88;5013593;28;20054;-64
2022/02/04 07:26:32;;;;;;;3.75;2.60;;;;;;;20.23;40.58;100629.56;5017107;28;20029;-64
2022/02/04 07:28:58;;;;;;;3.85;2.53;;;;;;;20.30;40.41;100610.34;5019125;28;20086;-64
2022/02/04 07:31:26;;;;;;;4.60;3.00;;;;;;;20.27;40.46;100621.28;5015106;28;20029;-64
2022/02/04 07:34:05;;;;;;;5.43;2.75;;;;;;;20.19;40.54;100615.09;5018135;28;20049;-64
2022/02/04 07:41:50;;;;;;;3.78;2.90;;;;;;;20.23;40.57;100608.44;5014207;28;20049;-64
2022/02/04 07:44:17;;;;;;;3.63;2.75;;;;;;;20.25;40.55;100615.34;5016174;28;20061;-64
2022/02/04 07:46:43;;;;;;;5.20;2.53;;;;;;;20.27;40.49;100606.22;5017834;28;20517;-64
2022/02/04 07:49:11;;;;;;;5.15;2.80;;;;;;;20.17;40.47;100605.72;5015336;28;20037;-64
2022/02/04 07:51:36;;;;;;;4.05;2.28;;;;;;;20.22;40.45;100596.22;5017736;28;20543;-64
2022/02/04 07:54:02;;;;;;;4.00;2.83;;;;;;;20.15;40.38;100605.09;5019320;28;20060;-64
2022/02/04 07:56:28;;;;;;;4.22;2.90;;;;;;;20.19;40.46;100598.41;5019847;28;20068;-64
2022/02/04 07:58:58;;;;;;;6.15;2.95;;;;;;;20.21;40.40;100599.88;5017825;28;20037;-64
2022/02/04 08:01:30;;;;;;;3.80;2.60;;;;;;;20.19;40.38;100599.25;5023590;28;20053;-64
2022/02/04 08:04:24;;;;;;;5.13;3.03;;;;;;;20.26;40.33;100588.72;5015908;28;20052;-64
2022/02/04 08:06:51;;;;;;;3.63;2.63;;;;;;;20.22;40.35;100583.00;5021294;28;20053;-64
2022/02/04 08:09:26;;;;;;;3.92;2.72;;;;;;;20.20;40.31;100579.72;5012673;28;20065;-64
2022/02/04 08:17:19;;;;;;;4.00;2.70;;;;;;;20.19;40.23;100574.63;5014652;28;20499;-64
2022/02/04 08:28:17;;;;;;;6.53;2.85;;;;;;;20.10;40.41;100568.63;5017082;28;20050;-64
2022/02/04 08:38:59;;;;;;;4.40;2.88;;;;;;;20.18;40.32;100571.16;5021169;28;20049;-64
2022/02/04 08:46:48;;;;;;;3.58;2.55;;;;;;;20.09;40.54;100566.16;5015697;28;20041;-64
2022/02/04 08:54:34;;;;;;;7.22;2.42;;;;;;;20.16;40.34;100569.72;5015913;28;20048;-64
2022/02/04 08:57:04;;;;;;;3.45;2.15;;;;;;;20.17;40.31;100551.03;5010014;28;20048;-64
2022/02/04 09:02:08;;;;;;;5.22;2.40;;;;;;;20.18;40.40;100549.19;5010254;28;20042;-64
2022/02/04 09:04:43;;;;;;;6.30;2.58;;;;;;;20.13;40.50;100536.56;5016010;28;20234;-64
2022/02/04 09:07:12;;;;;;;4.40;3.58;;;;;;;20.17;40.41;100531.69;5022477;28;20167;-64
2022/02/04 09:09:51;;;;;;;5.13;2.35;;;;;;;20.25;40.18;100534.19;5015891;28;20041;-64
2022/02/04 09:16:56;;;;;;;4.10;2.20;;;;;;;20.26;40.31;100525.25;5019709;28;20405;-64
2022/02/04 09:22:56;;;;;;;4.35;2.30;;;;;;;20.24;40.21;100529.94;5020182;28;20044;-64
2022/02/04 09:25:21;;;;;;;3.83;2.42;;;;;;;20.20;40.27;100526.03;5029995;28;20037;-64
2022/02/04 09:27:47;;;;;;;3.10;2.17;;;;;;;20.20;40.34;100513.63;5016542;28;20546;-64
2022/02/04 09:30:16;;;;;;;3.47;2.50;;;;;;;20.26;40.20;100503.28;5018475;28;20040;-64
2022/02/04 09:32:43;;;;;;;6.53;2.95;;;;;;;20.22;40.19;100508.97;5017533;28;20037;-64
2022/02/04 09:35:17;;;;;;;3.13;2.28;;;;;;;20.21;40.29;100496.75;5012183;28;20048;-64
2022/02/04 09:37:43;;;;;;;4.35;2.53;;;;;;;20.19;40.29;100488.19;5015532;28;20383;-64
2022/02/04 09:40:11;;;;;;;7.47;2.63;;;;;;;20.26;40.23;100498.00;5017581;28;20076;-64
2022/02/04 09:42:40;;;;;;;3.90;2.53;;;;;;;20.26;40.18;100493.53;5021435;28;20077;-64
2022/02/04 09:45:07;;;;;;;3.80;2.40;;;;;;;20.24;40.23;100484.97;5017970;28;20076;-64
2022/02/04 09:47:35;;;;;;;3.53;2.53;;;;;;;20.26;40.18;100484.78;5034801;28;20040;-64
2022/02/04 09:50:04;;;;;;;3.05;2.30;;;;;;;20.22;40.22;100489.63;5015187;28;20040;-64
2022/02/04 10:12:09;;;;;;;3.55;2.30;;;;;;;20.35;40.45;100444.81;5019139;28;20068;-64
2022/02/04 10:22:24;;;;;;;3.15;2.40;;;;;;;20.24;41.21;100421.53;5019721;28;20486;-64
2022/02/04 10:25:02;;;;;;;3.67;3.00;;;;;;;20.27;40.99;100405.25;5011339;28;20065;-64
2022/02/04 10:27:31;;;;;;;4.13;2.45;;;;;;;20.38;40.71;100409.22;5018659;28;20474;-62
2022/02/04 10:30:04;;;;;;;4.80;2.55;;;;;;;20.43;40.63;100412.94;5011940;28;20041;-64
2022/02/04 10:32:30;;;;;;;3.65;2.20;;;;;;;20.44;40.65;100404.00;5017212;28;20352;-64
2022/02/04 10:35:06;;;;;;;6.07;2.50;;;;;;;20.48;40.60;100407.91;5012980;28;20044;-64
2022/02/04 10:37:35;;;;;;;4.28;2.50;;;;;;;20.43;40.73;100396.25;5030871;28;20095;-64
2022/02/04 10:42:56;;;;;;;2.80;2.10;;;;;;;20.44;40.96;100408.47;5018012;28;20560;-64
2022/02/04 10:45:33;;;;;;;3.25;2.10;;;;;;;20.43;40.97;100404.19;5016372;28;20080;-62
2022/02/04 10:51:22;;;;;;;5.85;2.63;;;;;;;20.42;41.01;100398.09;5016613;28;20046;-64
2022/02/04 10:54:12;;;;;;;2.58;2.10;;;;;;;20.38;41.19;100388.06;5023424;28;20129;-64
2022/02/04 11:34:57;;;;;;;3.10;2.53;;;;;;;20.33;41.45;100304.03;5019660;28;20069;-63
2022/02/04 11:54:43;;;;;;;4.95;2.78;;;;;;;20.42;41.14;100289.66;5018626;28;20068;-63
2022/02/04 11:57:06;;;;;;;13.10;3.80;;;;;;;20.44;41.56;100277.03;5010914;28;20050;-63
2022/02/04 11:59:37;;;;;;;5.72;3.28;;;;;;;20.47;41.80;100270.56;5011039;28;20051;-63
2022/02/04 12:05:16;;;;;;;10.30;3.60;;;;;;;20.47;42.10;100260.00;5015118;28;20041;-65
2022/02/04 12:07:56;;;;;;;7.70;3.08;;;;;;;20.47;41.92;100260.81;5011529;28;20486;-65
2022/02/04 12:10:27;;;;;;;3.90;2.88;;;;;;;20.46;41.78;100259.16;5016566;28;20526;-65
2022/02/04 12:12:56;;;;;;;4.53;2.85;;;;;;;20.37;41.70;100227.78;5015679;28;20045;-65
2022/02/04 12:15:30;;;;;;;6.80;2.50;;;;;;;20.48;41.70;100251.03;5015994;28;20029;-65
2022/02/04 12:18:16;;;;;;;7.65;3.35;;;;;;;20.50;41.72;100227.84;5015675;28;20560;-64
2022/02/04 12:20:45;;;;;;;4.32;2.45;;;;;;;20.55;41.61;100222.78;5011096;28;20517;-65
2022/02/04 12:23:25;;;;;;;5.72;2.92;;;;;;;20.60;41.54;100230.94;5008560;28;20064;-65
2022/02/04 12:26:05;;;;;;;6.82;2.67;;;;;;;20.59;41.56;100225.84;5009117;28;20495;-65
2022/02/04 12:28:49;;;;;;;5.55;3.15;;;;;;;20.61;41.46;100224.63;5009831;28;20033;-65
2022/02/04 12:31:25;;;;;;;8.70;3.08;;;;;;;20.52;41.46;100205.47;5016800;28;20368;-65
2022/02/04 12:33:52;;;;;;;7.90;2.80;;;;;;;20.51;41.71;100226.84;5013290;28;20038;-65
2022/02/04 12:36:35;;;;;;;4.72;2.80;;;;;;;20.50;41.51;100207.50;5015532;28;20069;-65
2022/02/04 12:39:03;;;;;;;6.15;3.63;;;;;;;20.55;41.46;100211.38;5008241;28;20097;-65
2022/02/04 12:41:40;;;;;;;6.28;2.85;;;;;;;20.45;41.75;100199.34;5014462;28;20492;-65
2022/02/04 12:44:21;;;;;;;3.95;2.67;;;;;;;20.49;41.50;100192.66;5007421;28;20088;-65
2022/02/04 12:46:50;;;;;;;5.32;2.50;;;;;;;20.40;41.78;100183.22;5014075;28;20068;-65
2022/02/04 12:49:21;;;;;;;3.95;3.42;;;;;;;20.40;41.72;100179.78;5011833;28;20042;-65
2022/02/04 12:54:49;;;;;;;7.55;3.00;;;;;;;20.40;41.61;100172.66;5009762;28;20029;-65
2022/02/04 12:57:36;;;;;;;7.82;2.97;;;;;;;20.43;41.27;100155.59;5015670;28;20033;-65
2022/02/04 13:07:57;;;;;;;6.05;3.13;;;;;;;20.43;41.68;100155.59;5014561;28;20410;-65
2022/02/04 13:10:28;;;;;;;6.13;2.92;;;;;;;20.43;41.57;100168.81;5013387;28;20123;-66
2022/02/04 13:13:02;;;;;;;3.35;2.60;;;;;;;20.40;41.64;100161.25;5010611;28;20049;-65
2022/02/04 13:15:31;;;;;;;3.72;2.70;;;;;;;20.48;41.55;100172.53;5010382;28;20056;-65
2022/02/04 13:17:57;;;;;;;3.72;2.70;;;;;;;20.44;41.73;100170.44;5013721;28;20045;-65
2022/02/04 13:20:25;;;;;;;4.72;3.00;;;;;;;20.44;41.64;100171.25;5031204;28;20041;-65
2022/02/04 13:22:54;;;;;;;5.57;2.78;;;;;;;20.53;41.49;100158.69;5023051;28;20040;-65
2022/02/04 13:25:22;;;;;;;5.00;2.60;;;;;;;20.54;41.52;100162.16;5015797;28;20048;-65
2022/02/04 13:28:05;;;;;;;3.33;2.47;;;;;;;20.61;41.46;100153.19;5019133;28;20471;-65
2022/02/04 13:30:33;;;;;;;3.55;2.50;;;;;;;20.62;41.38;100159.28;5014795;28;20042;-65
2022/02/04 13:33:00;;;;;;;4.93;2.70;;;;;;;20.61;41.32;100152.38;5018522;28;20071;-65
2022/02/04 13:35:41;;;;;;;3.70;2.40;;;;;;;20.57;41.29;100141.41;5015753;28;20056;-65
2022/02/04 13:38:18;;;;;;;5.45;2.83;;;;;;;20.59;41.26;100139.34;5020978;28;20478;-65
2022/02/04 13:41:21;;;;;;;6.32;2.95;;;;;;;20.55;41.28;100134.69;5017639;28;20099;-65
2022/02/04 13:46:37;;;;;;;8.32;2.95;;;;;;;20.50;41.39;100206.69;5016953;28;20145;-65
2022/02/04 13:51:57;;;;;;;4.03;2.38;;;;;;;20.56;41.07;100218.31;5020947;28;20570;-65
2022/02/04 13:57:35;;;;;;;4.47;2.58;;;;;;;20.59;40.91;100241.72;5019150;28;20397;-65
2022/02/04 14:00:09;;;;;;;3.20;2.50;;;;;;;20.50;40.97;100239.25;5015647;28;20057;-65
2022/02/04 14:02:42;;;;;;;3.55;2.50;;;;;;;20.51;41.03;100251.47;5020031;28;20044;-65
2022/02/04 14:05:09;;;;;;;3.53;2.45;;;;;;;20.51;40.98;100254.09;5028055;28;20132;-65
2022/02/04 14:07:48;;;;;;;4.32;2.30;;;;;;;20.53;40.85;100275.06;5024601;28;20037;-65
2022/02/04 14:10:20;;;;;;;5.60;2.67;;;;;;;20.46;40.89;100274.22;5020152;28;20494;-65
2022/02/04 14:13:02;;;;;;;4.47;2.42;;;;;;;20.45;40.91;100281.31;5018145;28;20037;-65
2022/02/04 14:15:29;;;;;;;5.95;2.50;;;;;;;20.58;40.59;100295.63;5027260;28;20332;-65
2022/02/04 14:18:04;;;;;;;3.13;2.53;;;;;;;20.62;40.46;100296.84;5019124;28;20693;-65
2022/02/04 14:20:30;;;;;;;2.88;2.38;;;;;;;20.55;40.58;100301.31;5014932;28;20087;-65
2022/02/04 14:22:55;;;;;;;3.72;2.42;;;;;;;20.54;40.67;100297.03;5032470;28;20509;-65
2022/02/04 14:25:21;;;;;;;5.57;2.22;;;;;;;20.56;40.58;100292.38;5013032;28;20063;-65
2022/02/04 14:27:52;;;;;;;2.90;2.20;;;;;;;20.66;40.40;100301.59;5022133;28;20415;-63
2022/02/04 14:30:23;;;;;;;7.50;2.97;;;;;;;20.66;40.30;100303.41;5015411;28;20029;-65
2022/02/04 14:33:06;;;;;;;3.70;2.50;;;;;;;20.67;40.11;100311.16;5019095;28;20056;-65
2022/02/04 14:35:55;;;;;;;2.80;2.10;;;;;;;20.70;40.22;100304.63;5016034;28;20045;-65
2022/02/04 14:50:02;;;;;;;5.38;2.92;;;;;;;20.62;40.33;100329.41;5018112;28;20135;-65
2022/02/04 15:02:28;;;;;;;2.05;1.70;;;;;;;20.61;40.05;100342.84;5012182;28;20046;-65
2022/02/04 15:04:54;;;;;;;4.55;2.00;;;;;;;20.67;40.10;100347.38;5014016;28;20053;-65
2022/02/04 15:07:30;;;;;;;2.58;2.00;;;;;;;20.67;40.01;100358.78;5020311;28;20537;-65
2022/02/04 15:09:56;;;;;;;3.28;2.13;;;;;;;20.71;39.85;100364.47;5018247;28;20641;-65
2022/02/04 15:12:23;;;;;;;2.30;2.00;;;;;;;20.67;40.03;100369.34;5021354;28;20164;-65
2022/02/04 15:14:48;;;;;;;3.17;2.10;;;;;;;20.65;39.82;100359.97;5014381;28;20053;-65
2022/02/04 15:17:14;;;;;;;4.47;2.15;;;;;;;20.53;40.17;100351.78;5019465;28;20059;-65
2022/02/04 15:19:42;;;;;;;1.90;1.67;;;;;;;20.54;40.37;100371.09;5016343;28;20091;-64
2022/02/04 15:22:09;;;;;;;3.13;2.03;;;;;;;20.54;40.42;100373.75;5019870;28;20064;-65
2022/02/04 15:24:36;;;;;;;2.13;1.67;;;;;;;20.47;40.63;100371.06;5016380;28;20045;-65
2022/02/04 15:27:03;;;;;;;3.67;1.60;;;;;;;20.45;40.68;100379.19;5026108;28;20275;-65
2022/02/04 15:29:30;;;;;;;3.33;1.90;;;;;;;20.51;40.58;100382.91;5016478;28;20046;-65
2022/02/04 15:31:59;;;;;;;2.38;1.80;;;;;;;20.59;40.28;100388.00;5023608;28;20047;-65
2022/02/04 15:34:25;;;;;;;2.83;1.70;;;;;;;20.60;40.20;100388.84;5014768;28;20037;-65
2022/02/04 15:36:51;;;;;;;3.85;1.60;;;;;;;20.66;40.13;100402.13;5020576;28;20037;-65
2022/02/04 15:39:20;;;;;;;2.47;1.55;;;;;;;20.66;40.07;100410.06;5014321;28;20132;-65
2022/02/04 15:41:48;;;;;;;2.92;1.50;;;;;;;20.66;40.08;100414.53;5017639;28;20040;-65
2022/02/04 15:44:36;;;;;;;3.75;1.80;;;;;;;20.68;39.99;100418.59;5014962;28;20544;-65
2022/02/04 15:50:21;;;;;;;3.42;1.40;;;;;;;20.58;39.81;100415.47;5024195;28;20107;-65
2022/02/04 15:56:09;;;;;;;2.25;1.67;;;;;;;20.65;39.94;100457.88;5021530;28;20597;-65
2022/02/04 16:06:47;;;;;;;2.83;1.60;;;;;;;20.65;39.88;100456.03;5017968;28;20061;-65
2022/02/04 16:09:22;;;;;;;1.35;1.20;;;;;;;20.66;39.87;100462.97;5015780;28;20037;-64
2022/02/04 16:12:06;;;;;;;1.85;1.30;;;;;;;20.69;39.91;100475.00;5015065;28;20043;-65
2022/02/04 16:17:19;;;;;;;2.13;1.50;;;;;;;20.61;39.74;100488.34;5012233;28;20061;-65
2022/02/04 16:20:04;;;;;;;2.17;1.38;;;;;;;20.65;39.91;100489.63;5018085;28;20136;-65
2022/02/04 16:22:55;;;;;;;1.83;1.60;;;;;;;20.64;39.79;100487.94;5014270;28;20068;-65
2022/02/04 16:25:34;;;;;;;2.90;1.80;;;;;;;20.50;39.78;100474.66;5018660;28;20524;-65
2022/02/04 16:30:44;;;;;;;1.73;1.45;;;;;;;20.51;39.96;100508.03;5023209;28;20041;-66
2022/02/04 16:33:10;;;;;;;2.55;1.42;;;;;;;20.56;39.84;100515.38;5016672;28;20044;-64
2022/02/04 16:35:36;;;;;;;2.90;1.65;;;;;;;20.63;39.82;100518.06;5019981;28;20034;-64
2022/02/04 16:38:03;;;;;;;2.55;1.33;;;;;;;20.68;39.52;100518.34;5015485;28;20042;-64
2022/02/04 16:40:34;;;;;;;1.38;1.27;;;;;;;20.52;40.01;100522.88;5022969;28;20536;-64
2022/02/04 16:43:02;;;;;;;2.53;1.20;;;;;;;20.51;40.01;100531.03;5019199;28;20092;-65
2022/02/04 16:45:28;;;;;;;2.90;1.27;;;;;;;20.58;39.78;100534.53;5018473;28;20533;-64
2022/02/04 16:47:57;;;;;;;3.33;1.38;;;;;;;20.56;39.96;100541.03;5016778;28;20568;-63
2022/02/04 16:50:23;;;;;;;2.80;1.13;;;;;;;20.59;39.89;100543.28;5027636;28;20041;-64
2022/02/04 16:52:50;;;;;;;2.17;1.50;;;;;;;20.68;39.64;100547.44;5020270;28;20483;-64
2022/02/04 16:55:20;;;;;;;2.20;1.30;;;;;;;20.72;39.54;100554.78;5018566;28;20037;-64
2022/02/04 16:57:47;;;;;;;4.75;1.52;;;;;;;20.67;39.71;100561.69;5030510;28;20041;-64
2022/02/04 17:00:21;;;;;;;1.98;1.20;;;;;;;20.62;39.80;100572.81;5017068;28;20562;-64
2022/02/04 17:02:48;;;;;;;1.38;1.25;;;;;;;20.62;39.65;100566.69;5008769;28;20479;-64
2022/02/04 17:05:14;;;;;;;1.75;1.30;;;;;;;20.63;39.74;100569.16;5022404;28;20423;-65
2022/02/04 17:07:40;;;;;;;1.83;1.20;;;;;;;20.59;39.76;100583.78;5015991;28;20033;-64
2022/02/04 17:10:08;;;;;;;1.77;1.40;;;;;;;20.59;39.63;100580.31;5038408;28;20041;-64
2022/02/04 17:12:41;;;;;;;3.03;1.38;;;;;;;20.68;39.53;100595.88;5014901;28;20589;-64
2022/02/04 17:15:08;;;;;;;3.13;1.33;;;;;;;20.56;39.80;100594.75;5029750;28;20046;-65
2022/02/04 17:17:34;;;;;;;2.60;1.52;;;;;;;20.48;40.04;100592.25;5011486;28;20057;-64
2022/02/04 17:20:13;;;;;;;3.22;1.58;;;;;;;20.50;40.21;100598.97;5030575;28;20045;-64
2022/02/04 17:22:39;;;;;;;2.45;1.33;;;;;;;20.55;39.98;100594.94;5012392;28;20046;-64
2022/02/04 17:25:10;;;;;;;1.85;1.60;;;;;;;20.57;40.01;100598.22;5014016;28;20031;-64
2022/02/04 17:27:37;;;;;;;3.28;1.48;;;;;;;20.51;40.24;100608.53;5017782;28;20030;-64
2022/02/04 17:30:05;;;;;;;2.90;1.65;;;;;;;20.53;40.05;100616.28;5016190;28;20080;-65
2022/02/04 17:32:31;;;;;;;3.38;1.58;;;;;;;20.45;40.04;100600.53;5031776;28;20037;-64
2022/02/04 17:34:57;;;;;;;2.30;1.67;;;;;;;20.57;40.08;100627.31;5013585;28;20411;-66
2022/02/04 17:37:24;;;;;;;1.58;1.40;;;;;;;20.65;38.73;100628.00;5016717;28;20530;-65
2022/02/04 17:39:52;;;;;;;2.15;1.45;;;;;;;20.64;38.69;100629.00;5018426;28;20083;-65
2022/02/04 17:42:22;;;;;;;2.70;1.73;;;;;;;20.62;38.90;100635.50;5017729;28;20057;-65
2022/02/04 17:44:48;;;;;;;;;;;;;;;20.66;38.88;100640.22;5017423;28;20046;-65
2022/02/04 17:47:14;;;;;;;1.85;1.52;;;;;;;20.64;39.18;100647.50;5015949;28;19925;-65
2022/02/04 17:49:56;;;;;;;1.67;1.50;;;;;;;20.68;39.01;100655.91;5019668;28;20106;-65
2022/02/04 17:52:27;;;;;;;5.70;2.00;;;;;;;20.62;39.11;100678.63;5027756;28;20487;-65
2022/02/04 17:55:04;;;;;;;3.25;1.55;;;;;;;20.58;39.24;100663.34;5017923;28;20479;-66
2022/02/04 18:02:56;;;;;;;3.63;1.83;;;;;;;20.45;39.42;100674.59;5009194;28;20491;-65